createdAt,value
2023-02-02T00:00:49.219Z,5.13
2023-02-02T00:03:21.591Z,5.20
2023-02-02T00:05:55.797Z,5.47
2023-02-02T00:08:28.458Z,5.57
2023-02-02T00:10:58.702Z,5.93
2023-02-02T00:13:28.798Z,6.10
2023-02-02T00:16:01.351Z,6.43
2023-02-02T00:18:31.429Z,5.97
2023-02-02T00:21:01.611Z,4.70
2023-02-02T00:23:34.329Z,5.23
2023-02-02T00:26:04.435Z,5.23
2023-02-02T00:28:34.670Z,5.60
2023-02-02T00:31:04.801Z,5.87
2023-02-02T00:33:34.965Z,6.13
2023-02-02T00:36:05.257Z,6.80
2023-02-02T00:38:38.185Z,6.37
2023-02-02T00:41:08.761Z,6.17
2023-02-02T00:43:38.884Z,6.57
2023-02-02T00:46:13.849Z,5.87
2023-02-02T00:48:52.483Z,7.50
2023-02-02T00:51:23.826Z,6.70
2023-02-02T00:53:56.459Z,5.77
2023-02-02T00:56:26.716Z,6.80
2023-02-02T00:58:56.790Z,6.70
2023-02-02T01:01:26.931Z,6.60
2023-02-02T01:03:57.236Z,7.10
2023-02-02T01:06:30.306Z,6.63
2023-02-02T01:09:03.044Z,6.83
2023-02-02T01:11:33.600Z,6.70
2023-02-02T01:14:03.667Z,6.00
2023-02-02T01:16:33.882Z,5.67
2023-02-02T01:19:04.285Z,6.00
2023-02-02T01:21:34.470Z,5.33
2023-02-02T01:24:07.610Z,5.27
2023-02-02T01:26:38.114Z,5.60
2023-02-02T01:29:08.215Z,5.07
2023-02-02T01:31:38.417Z,5.13
2023-02-02T01:34:08.532Z,5.50
2023-02-02T01:36:38.716Z,5.57
2023-02-02T01:39:12.893Z,5.10
2023-02-02T01:41:44.748Z,4.50
2023-02-02T01:45:08.664Z,5.67
2023-02-02T01:47:45.649Z,4.93
2023-02-02T01:50:19.979Z,4.73
2023-02-02T01:52:55.628Z,5.13
2023-02-02T01:55:32.098Z,5.23
2023-02-02T01:58:07.799Z,4.87
2023-02-02T02:00:37.929Z,5.50
2023-02-02T02:03:12.378Z,5.27
2023-02-02T02:05:50.791Z,5.27
2023-02-02T02:08:25.197Z,5.20
2023-02-02T02:11:00.995Z,5.40
2023-02-02T02:13:46.718Z,4.77
2023-02-02T02:16:26.376Z,5.53
2023-02-02T02:19:15.394Z,5.13
2023-02-02T02:22:15.039Z,5.20
2023-02-02T02:25:47.183Z,6.13
2023-02-02T02:29:05.241Z,4.90
2023-02-02T02:32:20.331Z,5.13
2023-02-02T02:35:09.598Z,6.03
2023-02-02T02:37:50.109Z,5.93
2023-02-02T02:40:29.245Z,5.97
2023-02-02T02:43:04.450Z,5.90
2023-02-02T02:45:37.405Z,6.37
2023-02-02T02:48:12.909Z,5.80
2023-02-02T02:50:43.206Z,6.77
2023-02-02T02:53:18.801Z,7.27
2023-02-02T02:55:59.171Z,6.13
2023-02-02T02:58:46.319Z,6.07
2023-02-02T03:01:28.325Z,5.77
2023-02-02T03:04:21.112Z,6.87
2023-02-02T03:06:59.766Z,5.70
2023-02-02T03:09:38.184Z,6.27
2023-02-02T03:12:09.343Z,6.30
2023-02-02T03:14:42.656Z,6.23
2023-02-02T03:17:12.783Z,5.93
2023-02-02T03:19:45.495Z,5.70
2023-02-02T03:22:15.718Z,6.07
2023-02-02T03:24:45.807Z,5.97
2023-02-02T03:27:16.015Z,5.77
2023-02-02T03:29:46.212Z,5.63
2023-02-02T03:32:16.342Z,5.10
2023-02-02T03:34:49.799Z,5.77
2023-02-02T03:37:20.027Z,5.87
2023-02-02T03:39:50.124Z,5.57
2023-02-02T03:42:20.290Z,5.33
2023-02-02T03:44:50.380Z,6.13
2023-02-02T03:47:20.552Z,5.10
2023-02-02T03:49:53.207Z,4.37
2023-02-02T03:52:23.394Z,5.10
2023-02-02T03:54:55.027Z,5.73
2023-02-02T03:57:25.201Z,6.20
2023-02-02T03:59:55.221Z,5.80
2023-02-02T04:02:25.765Z,5.37
2023-02-02T04:04:58.659Z,5.87
2023-02-02T04:07:28.772Z,6.53
2023-02-02T04:09:58.829Z,6.00
2023-02-02T04:12:28.982Z,5.87
2023-02-02T04:14:59.091Z,5.23
2023-02-02T04:17:29.483Z,5.40
2023-02-02T04:20:02.182Z,5.47
2023-02-02T04:22:32.729Z,5.70
2023-02-02T04:25:02.817Z,6.00
2023-02-02T04:27:34.406Z,6.00
2023-02-02T04:30:05.827Z,5.27
2023-02-02T04:32:36.325Z,5.93
2023-02-02T04:35:10.651Z,5.90
2023-02-02T04:37:40.785Z,6.53
2023-02-02T04:40:15.320Z,6.10
2023-02-02T04:42:45.519Z,6.10
2023-02-02T04:45:15.618Z,7.13
2023-02-02T04:47:45.824Z,6.30
2023-02-02T04:50:19.342Z,5.43
2023-02-02T04:52:49.855Z,5.97
2023-02-02T04:55:20.463Z,5.90
2023-02-02T04:57:50.652Z,6.53
2023-02-02T05:00:21.486Z,6.30
2023-02-02T05:02:51.652Z,6.40
2023-02-02T05:05:27.575Z,6.57
2023-02-02T05:07:57.745Z,7.13
2023-02-02T05:10:27.813Z,7.70
2023-02-02T05:12:58.522Z,6.47
2023-02-02T05:15:28.734Z,6.90
2023-02-02T05:17:59.065Z,7.93
2023-02-02T05:20:34.504Z,6.63
2023-02-02T05:23:04.727Z,6.17
2023-02-02T05:25:34.904Z,6.87
2023-02-02T05:28:06.210Z,6.40
2023-02-02T05:30:36.442Z,6.60
2023-02-02T05:33:06.690Z,7.17
2023-02-02T05:35:41.658Z,7.30
2023-02-02T05:38:14.101Z,6.53
2023-02-02T05:40:44.160Z,6.10
2023-02-02T05:43:14.311Z,6.90
2023-02-02T05:45:47.242Z,6.80
2023-02-02T05:48:17.435Z,6.13
2023-02-02T05:51:02.536Z,5.80
2023-02-02T05:53:36.416Z,7.07
2023-02-02T05:56:07.160Z,6.37
2023-02-02T05:58:37.243Z,5.73
2023-02-02T06:01:07.762Z,6.43
2023-02-02T06:03:38.167Z,6.03
2023-02-02T06:06:11.416Z,5.97
2023-02-02T06:08:41.576Z,6.20
2023-02-02T06:11:14.661Z,6.60
2023-02-02T06:13:46.169Z,6.30
2023-02-02T06:16:16.637Z,6.10
2023-02-02T06:18:47.117Z,6.20
2023-02-02T06:21:23.673Z,5.90
2023-02-02T06:23:55.139Z,6.20
2023-02-02T06:26:25.293Z,7.10
2023-02-02T06:28:57.526Z,7.37
2023-02-02T06:31:27.930Z,6.97
2023-02-02T06:34:01.189Z,7.00
2023-02-02T06:36:33.882Z,6.07
2023-02-02T06:39:04.928Z,6.43
2023-02-02T06:41:35.011Z,6.47
2023-02-02T06:44:05.800Z,6.57
2023-02-02T06:46:36.008Z,5.90
2023-02-02T06:49:06.124Z,5.90
2023-02-02T06:51:39.506Z,6.80
2023-02-02T06:54:09.709Z,6.30
2023-02-02T06:56:39.836Z,5.90
2023-02-02T06:59:10.343Z,5.37
2023-02-02T07:01:40.535Z,6.13
2023-02-02T07:04:10.693Z,5.50
2023-02-02T07:06:43.386Z,6.03
2023-02-02T07:09:13.512Z,5.93
2023-02-02T07:11:45.287Z,5.63
2023-02-02T07:14:16.205Z,6.10
2023-02-02T07:16:46.254Z,5.27
2023-02-02T07:19:18.583Z,5.07
2023-02-02T07:21:53.544Z,5.30
2023-02-02T07:24:23.604Z,4.77
2023-02-02T07:26:53.689Z,5.73
2023-02-02T07:29:23.847Z,5.17
2023-02-02T07:31:54.213Z,5.10
2023-02-02T07:34:24.407Z,5.27
2023-02-02T07:36:59.568Z,5.20
2023-02-02T07:39:29.651Z,4.57
2023-02-02T07:42:02.140Z,5.87
2023-02-02T07:44:32.401Z,5.40
2023-02-02T07:47:02.621Z,5.70
2023-02-02T07:49:32.713Z,5.43
2023-02-02T07:52:05.505Z,5.07
2023-02-02T07:54:35.551Z,5.47
2023-02-02T07:57:05.761Z,5.53
2023-02-02T07:59:35.871Z,6.50
2023-02-02T08:02:08.581Z,5.90
2023-02-02T08:04:38.653Z,6.17
2023-02-02T08:07:12.537Z,5.50
2023-02-02T08:09:48.829Z,5.60
2023-02-02T08:12:19.021Z,6.10
2023-02-02T08:14:49.078Z,5.43
2023-02-02T08:17:19.145Z,5.40
2023-02-02T08:19:49.293Z,6.10
2023-02-02T08:22:24.015Z,5.53
2023-02-02T08:24:54.094Z,5.57
2023-02-02T08:27:24.229Z,5.33
2023-02-02T08:29:54.401Z,5.50
2023-02-02T08:32:24.552Z,5.30
2023-02-02T08:34:54.701Z,5.60
2023-02-02T08:37:28.976Z,5.33
2023-02-02T08:40:01.337Z,6.67
2023-02-02T08:42:31.651Z,6.40
2023-02-02T08:46:07.897Z,6.07
2023-02-02T08:48:10.326Z,6.30
2023-02-02T08:50:41.515Z,6.87
2023-02-02T08:53:16.113Z,5.83
2023-02-02T08:55:48.698Z,6.10
2023-02-02T08:58:19.895Z,6.17
2023-02-02T09:00:49.942Z,5.77
2023-02-02T09:03:20.426Z,5.43
2023-02-02T09:05:50.546Z,6.93
2023-02-02T09:08:23.335Z,6.03
2023-02-02T09:10:56.723Z,5.87
2023-02-02T09:13:26.833Z,5.97
2023-02-02T09:15:56.872Z,5.87
2023-02-02T09:18:26.927Z,6.10
2023-02-02T09:20:56.959Z,6.37
2023-02-02T09:23:32.136Z,5.50
2023-02-02T09:26:14.640Z,7.00
2023-02-02T09:28:47.555Z,5.90
2023-02-02T09:31:18.949Z,6.27
2023-02-02T09:33:49.498Z,6.40
2023-02-02T09:36:22.939Z,5.80
2023-02-02T09:38:56.191Z,5.10
2023-02-02T09:42:09.936Z,5.03
2023-02-02T09:45:04.983Z,4.80
2023-02-02T09:47:58.552Z,5.97
2023-02-02T09:50:49.900Z,4.50
2023-02-02T09:53:35.035Z,4.27
2023-02-02T09:56:27.061Z,4.23
2023-02-02T09:59:18.810Z,4.20
2023-02-02T10:01:55.527Z,4.30
2023-02-02T10:04:32.802Z,4.60
2023-02-02T10:07:15.652Z,3.97
2023-02-02T10:09:53.989Z,4.40
2023-02-02T10:12:49.411Z,4.50
2023-02-02T10:15:35.442Z,4.93
2023-02-02T10:18:15.790Z,4.20
2023-02-02T10:20:53.877Z,4.30
2023-02-02T10:23:30.982Z,3.90
2023-02-02T10:26:13.785Z,4.93
2023-02-02T10:29:06.268Z,5.30
2023-02-02T10:31:51.997Z,5.07
2023-02-02T10:34:29.850Z,5.43
2023-02-02T10:37:17.975Z,5.00
2023-02-02T10:40:07.824Z,4.80
2023-02-02T10:43:08.126Z,4.50
2023-02-02T10:45:45.797Z,5.53
2023-02-02T10:48:20.484Z,5.00
2023-02-02T10:50:56.856Z,5.00
2023-02-02T10:53:31.607Z,5.27
2023-02-02T10:56:09.189Z,5.03
2023-02-02T10:58:49.318Z,5.60
2023-02-02T11:01:23.229Z,5.47
2023-02-02T11:04:14.807Z,5.00
2023-02-02T11:06:52.147Z,5.37
2023-02-02T11:09:28.539Z,4.90
2023-02-02T11:12:07.153Z,5.37
2023-02-02T11:14:46.347Z,4.80
2023-02-02T11:17:26.177Z,4.90
2023-02-02T11:19:57.791Z,4.83
2023-02-02T11:22:35.337Z,4.50
2023-02-02T11:25:11.428Z,4.90
2023-02-02T11:27:46.694Z,4.50
2023-02-02T11:30:32.533Z,4.57
2023-02-02T11:33:30.191Z,4.37
2023-02-02T11:36:03.205Z,4.10
2023-02-02T11:38:35.080Z,4.00
2023-02-02T11:41:11.105Z,4.47
2023-02-02T11:43:51.684Z,4.20
2023-02-02T11:46:28.650Z,4.67
2023-02-02T11:49:08.647Z,4.83
2023-02-02T11:51:38.950Z,4.67
2023-02-02T11:54:21.958Z,4.57
2023-02-02T11:56:56.866Z,4.60
2023-02-02T11:59:34.448Z,5.50
2023-02-02T12:02:34.391Z,4.90
2023-02-02T12:05:46.726Z,4.73
2023-02-02T12:08:17.592Z,5.67
2023-02-02T12:10:58.037Z,6.67
2023-02-02T12:13:47.636Z,5.70
2023-02-02T12:16:40.585Z,5.10
2023-02-02T12:19:53.809Z,5.53
2023-02-02T12:23:05.390Z,4.97
2023-02-02T12:26:04.585Z,4.22
2023-02-02T12:28:52.303Z,4.47
2023-02-02T12:31:41.117Z,4.50
2023-02-02T12:34:37.469Z,4.15
2023-02-02T12:37:25.870Z,5.15
2023-02-02T12:40:30.742Z,4.30
2023-02-02T12:43:26.448Z,4.07
2023-02-02T12:46:28.804Z,4.75
2023-02-02T12:49:49.411Z,4.50
2023-02-02T12:52:53.573Z,4.60
2023-02-02T12:55:47.220Z,4.45
2023-02-02T12:58:35.203Z,3.97
2023-02-02T13:01:32.777Z,4.13
2023-02-02T13:04:51.834Z,3.42
2023-02-02T13:07:37.312Z,3.92
2023-02-02T13:10:20.897Z,3.45
2023-02-02T13:13:00.819Z,3.72
2023-02-02T13:15:38.817Z,3.90
2023-02-02T13:18:16.981Z,3.83
2023-02-02T13:20:52.955Z,3.47
2023-02-02T13:23:30.350Z,4.00
2023-02-02T13:26:08.216Z,3.53
2023-02-02T13:28:52.934Z,3.60
2023-02-02T13:31:33.035Z,3.80
2023-02-02T13:34:13.290Z,2.88
2023-02-02T13:36:49.515Z,3.03
2023-02-02T13:39:28.103Z,2.95
2023-02-02T13:42:00.075Z,3.10
2023-02-02T13:44:41.186Z,3.10
2023-02-02T13:47:22.439Z,3.08
2023-02-02T13:49:59.359Z,3.55
2023-02-02T13:52:53.251Z,3.00
2023-02-02T13:55:56.689Z,2.80
2023-02-02T13:59:01.653Z,2.67
2023-02-02T14:01:36.101Z,3.10
2023-02-02T14:04:07.699Z,2.50
2023-02-02T14:06:59.521Z,2.42
2023-02-02T14:09:34.611Z,4.43
2023-02-02T14:12:09.547Z,9.57
2023-02-02T14:14:43.537Z,2.72
2023-02-02T14:17:56.289Z,2.50
2023-02-02T14:20:49.859Z,2.67
2023-02-02T14:23:53.931Z,2.40
2023-02-02T14:26:46.478Z,3.42
2023-02-02T14:29:40.725Z,2.40
2023-02-02T14:32:43.844Z,2.20
2023-02-02T14:36:01.223Z,3.05
2023-02-02T14:39:13.340Z,2.17
2023-02-02T14:42:27.725Z,2.17
2023-02-02T14:45:34.628Z,2.03
2023-02-02T14:48:14.243Z,2.03
2023-02-02T14:50:53.430Z,2.45
2023-02-02T14:53:29.707Z,2.10
2023-02-02T14:56:06.372Z,2.83
2023-02-02T14:58:41.150Z,2.50
2023-02-02T15:01:26.415Z,2.40
2023-02-02T15:04:26.226Z,1.90
2023-02-02T15:06:59.580Z,3.20
2023-02-02T15:09:46.976Z,2.40
2023-02-02T15:12:27.520Z,2.70
2023-02-02T15:15:14.310Z,2.30
2023-02-02T15:18:13.135Z,2.60
2023-02-02T15:20:52.445Z,2.25
2023-02-02T15:23:31.763Z,2.63
2023-02-02T15:26:10.319Z,2.03
2023-02-02T15:28:48.252Z,2.00
2023-02-02T15:31:30.597Z,2.20
2023-02-02T15:34:06.167Z,2.10
2023-02-02T15:36:44.329Z,2.42
2023-02-02T15:39:29.227Z,2.20
2023-02-02T15:42:17.682Z,1.93
2023-02-02T15:44:48.315Z,1.98
2023-02-02T15:47:26.262Z,2.28
2023-02-02T15:49:56.437Z,2.03
2023-02-02T15:52:38.269Z,2.37
2023-02-02T15:55:25.356Z,2.17
2023-02-02T15:57:55.927Z,2.60
2023-02-02T16:00:38.019Z,2.20
2023-02-02T16:03:16.388Z,1.80
2023-02-02T16:05:52.351Z,2.10
2023-02-02T16:08:36.133Z,2.10
2023-02-02T16:11:11.932Z,2.17
2023-02-02T16:13:44.540Z,2.07
2023-02-02T16:16:29.942Z,1.90
2023-02-02T16:19:17.866Z,1.90
2023-02-02T16:21:53.713Z,2.57
2023-02-02T16:24:34.792Z,2.00
2023-02-02T16:27:11.235Z,1.90
2023-02-02T16:29:45.919Z,2.25
2023-02-02T16:32:33.840Z,1.73
2023-02-02T16:35:08.065Z,2.00
2023-02-02T16:37:39.222Z,2.40
2023-02-02T16:40:29.910Z,1.90
2023-02-02T16:43:09.994Z,2.27
2023-02-02T16:45:52.206Z,2.10
2023-02-02T16:48:35.495Z,1.63
2023-02-02T16:51:25.817Z,2.00
2023-02-02T16:54:04.066Z,2.00
2023-02-02T16:56:42.481Z,2.00
2023-02-02T16:59:23.081Z,1.97
2023-02-02T17:01:57.600Z,2.10
2023-02-02T17:04:31.618Z,2.27
2023-02-02T17:07:13.599Z,2.40
2023-02-02T17:09:46.678Z,2.30
2023-02-02T17:12:34.462Z,2.00
2023-02-02T17:15:33.402Z,2.53
2023-02-02T17:18:07.579Z,2.60
2023-02-02T17:20:40.290Z,2.50
2023-02-02T17:23:12.330Z,2.63
2023-02-02T17:25:48.017Z,2.77
2023-02-02T17:28:24.138Z,2.83
2023-02-02T17:31:05.789Z,2.63
2023-02-02T17:33:38.453Z,2.73
2023-02-02T17:36:10.250Z,3.13
2023-02-02T17:38:40.472Z,2.53
2023-02-02T17:41:15.224Z,2.80
2023-02-02T17:43:47.996Z,2.50
2023-02-02T17:46:18.138Z,2.57
2023-02-02T17:48:48.224Z,2.37
2023-02-02T17:51:20.337Z,3.23
2023-02-02T17:53:52.136Z,3.33
2023-02-02T17:56:23.099Z,3.10
2023-02-02T17:58:55.785Z,2.90
2023-02-02T18:01:26.175Z,2.70
2023-02-02T18:03:57.619Z,2.77
2023-02-02T18:06:29.517Z,3.07
2023-02-02T18:09:00.147Z,3.10
2023-02-02T18:11:37.402Z,3.40
2023-02-02T18:14:10.279Z,3.37
2023-02-02T18:16:40.995Z,3.53
2023-02-02T18:19:11.089Z,3.60
2023-02-02T18:21:43.506Z,3.10
2023-02-02T18:24:17.352Z,3.13
2023-02-02T18:26:48.693Z,3.70
2023-02-02T18:29:21.393Z,4.30
2023-02-02T18:31:53.978Z,3.63
2023-02-02T18:34:24.071Z,4.73
2023-02-02T18:36:54.217Z,4.20
2023-02-02T18:39:24.310Z,4.57
2023-02-02T18:41:54.522Z,4.73
2023-02-02T18:44:27.585Z,4.30
2023-02-02T18:46:59.872Z,4.17
2023-02-02T18:49:34.849Z,4.93
2023-02-02T18:52:05.202Z,5.63
2023-02-02T18:54:35.882Z,5.87
2023-02-02T18:57:06.051Z,6.67
2023-02-02T18:59:38.709Z,5.93
2023-02-02T19:02:08.823Z,5.80
2023-02-02T19:04:39.257Z,5.10
2023-02-02T19:07:22.998Z,5.50
2023-02-02T19:09:53.169Z,5.73
2023-02-02T19:12:27.702Z,6.63
2023-02-02T19:15:01.272Z,6.60
2023-02-02T19:17:32.878Z,6.50
2023-02-02T19:20:24.305Z,7.07
2023-02-02T19:23:04.471Z,11.27
2023-02-02T19:25:34.616Z,9.83
2023-02-02T19:28:22.545Z,9.07
2023-02-02T19:30:57.839Z,9.53
2023-02-02T19:33:46.599Z,7.73
2023-02-02T19:36:20.496Z,6.83
2023-02-02T19:38:53.424Z,6.90
2023-02-02T19:41:28.852Z,7.50
2023-02-02T19:44:04.240Z,7.10
2023-02-02T19:46:46.852Z,6.80
2023-02-02T19:49:27.822Z,7.20
2023-02-02T19:51:59.158Z,6.90
2023-02-02T19:54:36.471Z,7.10
2023-02-02T19:57:20.768Z,6.77
2023-02-02T19:59:54.713Z,7.27
2023-02-02T20:02:51.156Z,6.77
2023-02-02T20:05:25.296Z,6.50
2023-02-02T20:08:05.365Z,7.17
2023-02-02T20:10:42.591Z,6.97
2023-02-02T20:13:21.237Z,6.40
2023-02-02T20:15:57.412Z,9.27
2023-02-02T20:18:44.669Z,12.17
2023-02-02T20:21:30.310Z,9.10
2023-02-02T20:24:00.616Z,7.00
2023-02-02T20:26:38.458Z,7.27
2023-02-02T20:29:22.367Z,6.70
2023-02-02T20:31:55.481Z,6.23
2023-02-02T20:34:35.031Z,7.43
2023-02-02T20:37:18.826Z,7.67
2023-02-02T20:39:54.028Z,7.37
2023-02-02T20:42:27.451Z,7.30
2023-02-02T20:44:58.233Z,7.27
2023-02-02T20:47:29.160Z,7.63
2023-02-02T20:50:04.078Z,7.40
2023-02-02T20:52:34.433Z,7.73
2023-02-02T20:55:04.759Z,8.13
2023-02-02T20:57:35.819Z,8.30
2023-02-02T21:00:06.369Z,7.30
2023-02-02T21:02:36.967Z,7.23
2023-02-02T21:05:11.787Z,7.90
2023-02-02T21:07:41.900Z,7.90
2023-02-02T21:10:13.121Z,7.73
2023-02-02T21:12:43.676Z,8.40
2023-02-02T21:15:15.273Z,8.13
2023-02-02T21:17:45.436Z,9.37
2023-02-02T21:20:22.036Z,14.47
2023-02-02T21:22:52.221Z,9.73
2023-02-02T21:25:22.281Z,14.10
2023-02-02T21:27:52.429Z,8.63
2023-02-02T21:30:22.845Z,8.03
2023-02-02T21:32:52.983Z,9.30
2023-02-02T21:35:27.788Z,9.83
2023-02-02T21:38:03.541Z,8.10
2023-02-02T21:40:34.735Z,9.87
2023-02-02T21:43:17.526Z,9.47
2023-02-02T21:45:53.360Z,8.17
2023-02-02T21:48:32.525Z,7.10
2023-02-02T21:51:24.599Z,7.00
2023-02-02T21:53:55.019Z,6.60
2023-02-02T21:56:35.563Z,5.87
2023-02-02T21:59:14.605Z,5.40
2023-02-02T22:01:45.393Z,5.27
2023-02-02T22:04:25.478Z,5.70
2023-02-02T22:07:03.171Z,6.27
2023-02-02T22:09:43.672Z,6.13
2023-02-02T22:12:22.556Z,6.40
2023-02-02T22:14:55.342Z,6.10
2023-02-02T22:17:28.756Z,6.60
2023-02-02T22:20:05.831Z,6.57
2023-02-02T22:22:47.694Z,6.17
2023-02-02T22:25:33.632Z,6.23
2023-02-02T22:28:17.729Z,6.20
2023-02-02T22:30:50.005Z,6.10
2023-02-02T22:33:20.850Z,5.93
2023-02-02T22:35:51.423Z,6.63
2023-02-02T22:38:26.777Z,7.17
2023-02-02T22:40:57.353Z,6.90
2023-02-02T22:43:28.069Z,7.27
2023-02-02T22:45:58.211Z,6.73
2023-02-02T22:48:28.651Z,7.67
2023-02-02T22:51:01.264Z,7.97
2023-02-02T22:53:34.018Z,7.30
2023-02-02T22:56:04.085Z,6.67
2023-02-02T22:58:34.220Z,7.20
2023-02-02T23:01:05.747Z,6.97
2023-02-02T23:03:36.062Z,7.17
2023-02-02T23:06:06.453Z,7.57
2023-02-02T23:08:39.175Z,6.63
2023-02-02T23:11:09.381Z,7.50
2023-02-02T23:13:39.515Z,7.00
2023-02-02T23:16:10.910Z,7.80
2023-02-02T23:18:41.118Z,6.93
2023-02-02T23:21:12.233Z,6.73
2023-02-02T23:23:45.275Z,6.50
2023-02-02T23:26:15.507Z,6.90
2023-02-02T23:28:45.787Z,6.27
2023-02-02T23:31:18.637Z,5.50
2023-02-02T23:33:51.853Z,5.30
2023-02-02T23:36:21.901Z,5.27
2023-02-02T23:38:54.634Z,5.60
2023-02-02T23:41:24.687Z,5.60
2023-02-02T23:43:55.082Z,5.90
2023-02-02T23:46:28.363Z,5.63
2023-02-02T23:49:00.705Z,6.00
2023-02-02T23:51:30.894Z,5.80
2023-02-02T23:54:04.576Z,5.70
2023-02-02T23:56:34.995Z,5.80
2023-02-02T23:59:05.313Z,5.13
